Time;durP1;ratioP1;P1;durP2;ratioP2;P2;SDS_P1;SDS_P2;PMS_P1;PMS_P2;Temp;Humidity;BMP_temperature;BMP_pressure;BME280_temperature;BME280_humidity;BME280_pressure;Samples;Min_cycle;Max_cycle;Signal;HPM_P1;HPM_P2
2021/04/29 00:01:41;;;;;;;14.50;7.20;;;12.10;61.40;;;;;;4981466;28;20043;-69
2021/04/29 00:04:07;;;;;;;12.13;7.00;;;12.10;61.90;;;;;;4980483;28;20054;-69
2021/04/29 00:06:33;;;;;;;11.82;7.18;;;12.10;61.70;;;;;;4980424;28;20019;-69
2021/04/29 00:08:59;;;;;;;10.85;6.35;;;12.00;61.40;;;;;;4980333;28;20105;-68
2021/04/29 00:11:24;;;;;;;10.80;6.38;;;12.00;61.40;;;;;;4961243;28;20121;-69
2021/04/29 00:13:53;;;;;;;10.55;6.40;;;12.00;61.30;;;;;;4981112;28;20424;-69
2021/04/29 00:16:18;;;;;;;10.95;6.13;;;12.00;61.10;;;;;;4981312;28;20061;-69
2021/04/29 00:18:45;;;;;;;9.95;6.40;;;12.10;61.10;;;;;;4984447;28;20488;-69
2021/04/29 00:21:10;;;;;;;9.68;6.13;;;12.10;61.30;;;;;;4979935;28;20046;-69
2021/04/29 00:23:36;;;;;;;11.27;6.90;;;12.10;61.90;;;;;;4980767;28;20038;-69
2021/04/29 00:26:02;;;;;;;10.75;6.57;;;12.10;62.90;;;;;;4980781;28;20481;-69
2021/04/29 00:28:28;;;;;;;12.82;6.88;;;12.10;62.70;;;;;;4979587;28;20154;-69
2021/04/29 00:30:54;;;;;;;13.50;6.85;;;12.00;63.40;;;;;;4978652;28;20377;-69
2021/04/29 00:33:19;;;;;;;8.80;5.70;;;12.00;64.10;;;;;;4983594;28;20023;-69
2021/04/29 00:35:45;;;;;;;9.10;5.60;;;12.00;63.40;;;;;;4980622;28;20443;-69
2021/04/29 00:38:11;;;;;;;10.25;6.35;;;12.00;64.10;;;;;;4977234;28;20385;-69
2021/04/29 00:40:37;;;;;;;12.00;6.80;;;12.00;64.10;;;;;;4981781;28;20038;-69
2021/04/29 00:43:03;;;;;;;14.68;6.80;;;12.00;64.90;;;;;;4978484;28;20141;-69
2021/04/29 00:45:28;;;;;;;12.82;7.18;;;11.90;64.90;;;;;;4978280;28;20526;-68
2021/04/29 00:47:55;;;;;;;10.93;7.05;;;11.80;64.90;;;;;;4979082;28;20556;-68
2021/04/29 00:50:25;;;;;;;8.88;6.40;;;11.90;65.20;;;;;;4982940;28;20105;-68
2021/04/29 00:52:51;;;;;;;13.05;7.30;;;11.80;65.50;;;;;;4978404;28;20034;-68
2021/04/29 00:55:17;;;;;;;14.85;7.63;;;11.80;65.60;;;;;;4982244;28;20030;-69
2021/04/29 00:57:45;;;;;;;10.00;6.93;;;11.80;65.80;;;;;;4979336;28;20062;-67
2021/04/29 01:00:12;;;;;;;12.60;6.60;;;11.80;65.90;;;;;;4985832;28;20054;-69
2021/04/29 01:02:43;;;;;;;12.18;7.43;;;11.80;67.20;;;;;;4980524;28;20110;-69
2021/04/29 01:05:13;;;;;;;13.18;7.43;;;11.80;67.70;;;;;;4976978;28;20035;-68
2021/04/29 01:07:41;;;;;;;13.77;7.60;;;11.70;68.00;;;;;;4977403;28;20084;-69
2021/04/29 01:10:17;;;;;;;9.52;6.47;;;11.70;68.70;;;;;;4979549;28;20062;-69
2021/04/29 01:13:05;;;;;;;12.43;8.05;;;11.70;69.10;;;;;;4992014;28;20034;-69
2021/04/29 01:15:31;;;;;;;14.50;7.85;;;11.70;69.40;;;;;;4978840;28;20096;-69
2021/04/29 01:17:57;;;;;;;12.25;8.00;;;11.70;69.60;;;;;;4976356;28;20039;-69
2021/04/29 01:20:57;;;;;;;11.85;7.38;;;11.60;70.10;;;;;;4982388;28;20041;-69
2021/04/29 01:23:28;;;;;;;13.00;8.00;;;11.60;70.30;;;;;;4986671;28;20038;-69
2021/04/29 01:26:01;;;;;;;13.88;7.88;;;11.60;70.10;;;;;;4988303;28;20109;-69
2021/04/29 01:28:29;;;;;;;10.25;7.30;;;11.60;70.50;;;;;;4982871;28;20023;-69
2021/04/29 01:30:56;;;;;;;12.85;7.45;;;11.60;70.60;;;;;;4982841;28;20030;-69
2021/04/29 01:33:22;;;;;;;11.45;7.20;;;11.60;70.40;;;;;;4982846;28;20034;-69
2021/04/29 01:35:48;;;;;;;10.10;6.95;;;11.60;70.80;;;;;;4983418;28;20077;-68
2021/04/29 01:38:14;;;;;;;10.70;7.70;;;11.60;71.10;;;;;;4981636;28;20432;-69
2021/04/29 01:40:40;;;;;;;13.57;8.27;;;11.50;71.70;;;;;;4984352;28;20237;-69
2021/04/29 01:43:07;;;;;;;10.57;7.28;;;11.50;71.70;;;;;;4983009;28;20038;-69
2021/04/29 01:45:34;;;;;;;9.45;7.60;;;11.50;71.40;;;;;;4983034;28;20502;-68
2021/04/29 01:47:59;;;;;;;11.55;8.02;;;11.50;71.90;;;;;;4983504;28;20041;-69
2021/04/29 01:50:25;;;;;;;12.35;7.55;;;11.40;72.00;;;;;;4983248;28;20030;-68
2021/04/29 01:52:52;;;;;;;14.80;8.88;;;11.40;72.70;;;;;;4979292;28;20023;-69
2021/04/29 01:55:18;;;;;;;13.25;8.43;;;11.40;72.90;;;;;;4983290;28;20582;-69
2021/04/29 01:57:47;;;;;;;14.73;8.60;;;11.40;72.90;;;;;;4988557;28;20473;-68
2021/04/29 02:00:13;;;;;;;10.60;7.90;;;11.30;73.90;;;;;;4981866;28;20057;-68
2021/04/29 02:02:39;;;;;;;13.95;8.43;;;11.20;74.30;;;;;;5006590;23;20500;-67
2021/04/29 02:05:05;;;;;;;11.95;8.48;;;11.10;75.10;;;;;;4984706;28;20089;-68
2021/04/29 02:07:30;;;;;;;11.40;8.90;;;11.10;74.50;;;;;;4984032;28;20027;-68
2021/04/29 02:09:56;;;;;;;15.80;9.45;;;11.10;75.10;;;;;;4985300;28;20057;-68
2021/04/29 02:12:23;;;;;;;13.25;8.18;;;11.00;75.00;;;;;;4971244;28;20509;-67
2021/04/29 02:14:53;;;;;;;14.82;7.93;;;11.00;74.70;;;;;;4964449;28;20456;-67
2021/04/29 02:17:33;;;;;;;11.68;8.02;;;11.00;74.70;;;;;;4965018;28;20070;-67
2021/04/29 02:20:03;;;;;;;13.68;8.68;;;11.00;74.50;;;;;;4964632;28;20228;-67
2021/04/29 02:22:30;;;;;;;16.45;8.88;;;11.00;75.30;;;;;;4965413;28;20035;-67
2021/04/29 02:24:57;;;;;;;10.75;8.27;;;11.00;75.90;;;;;;4964853;28;20054;-68
2021/04/29 02:27:23;;;;;;;16.08;9.52;;;11.00;75.70;;;;;;4964127;28;20572;-67
2021/04/29 02:29:50;;;;;;;15.15;9.25;;;11.00;76.00;;;;;;4963977;28;20043;-67
2021/04/29 02:32:22;;;;;;;12.85;8.57;;;11.00;76.10;;;;;;4963460;28;20113;-67
2021/04/29 02:34:51;;;;;;;12.63;8.95;;;11.00;75.80;;;;;;4965839;28;20535;-67
2021/04/29 02:37:17;;;;;;;12.70;9.02;;;11.00;76.20;;;;;;4965815;28;20118;-67
2021/04/29 02:39:43;;;;;;;13.52;9.52;;;11.00;76.30;;;;;;4966136;28;20110;-67
2021/04/29 02:42:11;;;;;;;12.05;8.70;;;10.90;76.60;;;;;;4962392;28;20027;-68
2021/04/29 02:44:37;;;;;;;13.55;9.25;;;10.90;76.70;;;;;;4964476;28;20457;-67
2021/04/29 02:47:04;;;;;;;13.68;9.25;;;10.90;77.10;;;;;;4962737;28;20085;-68
2021/04/29 02:49:31;;;;;;;15.82;8.80;;;10.90;76.70;;;;;;4965899;28;20552;-67
2021/04/29 02:51:59;;;;;;;12.88;8.20;;;10.90;76.80;;;;;;4963616;28;20078;-68
2021/04/29 02:54:28;;;;;;;13.43;9.60;;;10.90;76.40;;;;;;4964319;28;20031;-69
2021/04/29 02:56:53;;;;;;;15.88;9.15;;;10.90;76.00;;;;;;4963379;28;20035;-68
2021/04/29 02:59:19;;;;;;;15.38;9.23;;;10.90;75.70;;;;;;4963608;28;20437;-68
2021/04/29 03:01:45;;;;;;;11.52;8.82;;;10.90;75.70;;;;;;4964849;28;20444;-68
2021/04/29 03:04:11;;;;;;;12.13;8.95;;;10.90;75.70;;;;;;4964723;28;20034;-69
2021/04/29 03:06:37;;;;;;;11.13;8.73;;;10.90;75.60;;;;;;4965366;28;20062;-67
2021/04/29 03:09:05;;;;;;;12.98;8.57;;;10.80;75.40;;;;;;4966521;28;20439;-68
2021/04/29 03:11:34;;;;;;;12.20;9.40;;;10.80;75.30;;;;;;4965187;28;20441;-68
2021/04/29 03:14:00;;;;;;;11.73;7.97;;;10.80;75.30;;;;;;4964414;28;21057;-68
2021/04/29 03:16:25;;;;;;;12.02;8.68;;;10.80;75.10;;;;;;4962675;28;20031;-68
2021/04/29 03:18:51;;;;;;;12.10;8.38;;;10.80;75.40;;;;;;4964142;28;20035;-67
2021/04/29 03:21:17;;;;;;;14.10;9.23;;;10.80;75.70;;;;;;4962894;28;20045;-67
2021/04/29 03:23:42;;;;;;;17.27;9.30;;;10.80;75.50;;;;;;4964089;28;20058;-67
2021/04/29 03:26:08;;;;;;;15.05;9.48;;;10.80;75.30;;;;;;4964775;28;20043;-67
2021/04/29 03:28:34;;;;;;;13.13;8.27;;;10.70;75.30;;;;;;4964892;28;20031;-68
2021/04/29 03:31:00;;;;;;;13.73;8.13;;;10.70;75.00;;;;;;4961221;28;20515;-68
2021/04/29 03:33:25;;;;;;;12.02;8.30;;;10.70;75.00;;;;;;4962231;28;20032;-67
2021/04/29 03:35:51;;;;;;;11.73;8.20;;;10.70;75.30;;;;;;4963698;28;20091;-67
2021/04/29 03:38:17;;;;;;;15.07;8.77;;;10.70;75.30;;;;;;4961676;28;20031;-68
2021/04/29 03:40:43;;;;;;;14.32;8.40;;;10.70;75.10;;;;;;4962938;28;20034;-67
2021/04/29 03:43:09;;;;;;;10.88;7.90;;;10.70;75.00;;;;;;4963669;28;20042;-68
2021/04/29 03:45:34;;;;;;;11.65;8.82;;;10.70;75.00;;;;;;4963055;28;20173;-68
2021/04/29 03:48:01;;;;;;;13.50;8.95;;;10.80;75.40;;;;;;4962402;28;20037;-67
2021/04/29 03:50:27;;;;;;;12.50;8.63;;;10.70;75.50;;;;;;4962695;28;20027;-67
2021/04/29 03:52:53;;;;;;;13.57;9.15;;;10.70;75.70;;;;;;4964688;28;20125;-67
2021/04/29 03:55:19;;;;;;;13.95;8.10;;;10.70;76.30;;;;;;4960606;28;20106;-68
2021/04/29 03:57:45;;;;;;;13.10;8.85;;;10.70;75.70;;;;;;4960325;28;20027;-67
2021/04/29 04:00:11;;;;;;;12.93;8.50;;;10.70;75.90;;;;;;4964049;28;20034;-67
2021/04/29 04:02:37;;;;;;;11.60;8.60;;;10.70;75.70;;;;;;4961533;28;20041;-67
2021/04/29 04:05:05;;;;;;;14.32;9.15;;;10.60;75.50;;;;;;4962170;28;20146;-67
2021/04/29 04:07:30;;;;;;;12.63;8.98;;;10.70;75.60;;;;;;4960388;28;20077;-68
2021/04/29 04:09:56;;;;;;;10.82;8.38;;;10.70;75.80;;;;;;4962654;28;20043;-67
2021/04/29 04:12:22;;;;;;;10.70;8.73;;;10.70;75.70;;;;;;4993241;28;20031;-68
2021/04/29 04:14:47;;;;;;;11.98;8.93;;;10.70;75.80;;;;;;4962233;28;20539;-68
2021/04/29 04:17:13;;;;;;;11.60;7.55;;;10.70;75.80;;;;;;4961318;28;20042;-67
2021/04/29 04:19:39;;;;;;;10.65;7.72;;;10.70;75.50;;;;;;4961958;28;20038;-68
2021/04/29 04:22:04;;;;;;;12.68;8.85;;;10.70;75.50;;;;;;4961550;28;20031;-68
2021/04/29 04:24:30;;;;;;;11.85;8.52;;;10.70;75.50;;;;;;4963772;28;20171;-68
2021/04/29 04:26:56;;;;;;;13.88;9.70;;;10.70;75.30;;;;;;4959971;28;20038;-68
2021/04/29 04:29:21;;;;;;;13.45;9.10;;;10.70;75.30;;;;;;4960919;28;20018;-67
2021/04/29 04:31:47;;;;;;;10.80;9.13;;;10.70;75.50;;;;;;4961521;28;20370;-68
2021/04/29 04:34:13;;;;;;;13.38;9.40;;;10.70;76.40;;;;;;4963226;28;20082;-67
2021/04/29 04:36:39;;;;;;;13.82;9.80;;;10.70;76.00;;;;;;4961750;28;20038;-67
2021/04/29 04:39:05;;;;;;;12.57;9.32;;;10.70;75.90;;;;;;4964336;28;20030;-68
2021/04/29 04:41:31;;;;;;;14.10;9.75;;;10.70;75.70;;;;;;4969240;28;20032;-68
2021/04/29 04:43:57;;;;;;;11.85;8.98;;;10.70;75.90;;;;;;4962716;28;20523;-68
2021/04/29 04:46:23;;;;;;;14.63;9.73;;;10.70;75.60;;;;;;4962643;28;20038;-68
2021/04/29 04:48:49;;;;;;;13.07;8.60;;;10.70;75.80;;;;;;4961249;28;20046;-68
2021/04/29 04:51:14;;;;;;;12.50;9.00;;;10.70;75.50;;;;;;4964625;28;20384;-67
2021/04/29 04:53:40;;;;;;;12.88;9.15;;;10.70;75.30;;;;;;4964424;28;20027;-68
2021/04/29 04:56:06;;;;;;;11.70;9.02;;;10.70;75.50;;;;;;4964242;28;20124;-67
2021/04/29 04:58:31;;;;;;;13.25;9.27;;;10.70;75.20;;;;;;4969447;28;20668;-68
2021/04/29 05:00:57;;;;;;;12.73;9.70;;;10.70;75.30;;;;;;4965288;28;20134;-67
2021/04/29 05:03:23;;;;;;;11.40;9.20;;;10.70;75.20;;;;;;4963817;28;20035;-67
2021/04/29 05:05:49;;;;;;;12.88;9.35;;;10.70;75.30;;;;;;4965617;28;20042;-68
2021/04/29 05:08:18;;;;;;;16.50;10.55;;;10.70;75.40;;;;;;4965520;28;20516;-68
2021/04/29 05:10:44;;;;;;;14.40;10.15;;;10.70;76.00;;;;;;4965569;28;20062;-68
2021/04/29 05:13:09;;;;;;;13.07;9.95;;;10.60;75.80;;;;;;4963476;28;20071;-70
2021/04/29 05:15:36;;;;;;;14.85;9.73;;;10.70;75.80;;;;;;4964614;28;20090;-68
2021/04/29 05:18:03;;;;;;;14.82;10.00;;;10.70;75.90;;;;;;4965397;28;20109;-66
2021/04/29 05:20:30;;;;;;;14.07;10.68;;;10.70;75.80;;;;;;4967271;28;20027;-68
2021/04/29 05:22:56;;;;;;;12.48;9.98;;;10.80;76.10;;;;;;4966802;28;20042;-66
2021/04/29 05:25:23;;;;;;;14.65;11.45;;;10.80;76.10;;;;;;4965522;28;20035;-66
2021/04/29 05:27:52;;;;;;;15.23;10.57;;;10.70;76.30;;;;;;4964530;28;20035;-66
2021/04/29 05:30:20;;;;;;;13.70;10.40;;;10.70;76.80;;;;;;4966246;28;20047;-67
2021/04/29 05:32:47;;;;;;;13.88;10.18;;;10.70;76.60;;;;;;4966912;28;20058;-68
2021/04/29 05:35:13;;;;;;;16.05;10.70;;;10.80;76.60;;;;;;4965048;28;20114;-65
2021/04/29 05:37:39;;;;;;;17.15;10.52;;;10.80;76.80;;;;;;4964214;28;20573;-69
2021/04/29 05:40:06;;;;;;;13.02;9.63;;;10.80;77.00;;;;;;4965098;28;20031;-64
2021/04/29 05:42:31;;;;;;;12.73;9.40;;;10.90;76.80;;;;;;4948555;28;20043;-68
2021/04/29 05:44:57;;;;;;;17.40;10.57;;;10.90;76.70;;;;;;4965531;28;20547;-68
2021/04/29 05:47:23;;;;;;;15.85;10.65;;;11.00;76.80;;;;;;4965380;28;20031;-68
2021/04/29 05:49:49;;;;;;;16.15;11.63;;;11.00;77.00;;;;;;4966116;28;20439;-69
2021/04/29 05:52:15;;;;;;;14.05;9.90;;;11.00;77.10;;;;;;4993294;28;20030;-67
2021/04/29 05:54:40;;;;;;;15.15;10.88;;;11.00;76.90;;;;;;4964348;28;20086;-67
2021/04/29 05:57:06;;;;;;;15.13;10.60;;;11.10;77.00;;;;;;4962604;28;20043;-67
2021/04/29 05:59:32;;;;;;;13.30;10.20;;;11.10;77.20;;;;;;4964084;28;20063;-68
2021/04/29 06:01:58;;;;;;;15.45;11.25;;;11.10;77.00;;;;;;4961639;28;20042;-68
2021/04/29 06:04:24;;;;;;;15.77;11.73;;;11.10;77.10;;;;;;4963837;28;20111;-69
2021/04/29 06:06:53;;;;;;;16.33;12.20;;;11.10;77.90;;;;;;4964978;28;20031;-68
2021/04/29 06:09:18;;;;;;;18.33;12.25;;;11.00;78.20;;;;;;4963626;28;20053;-68
2021/04/29 06:11:44;;;;;;;14.98;10.85;;;11.00;78.10;;;;;;4969967;28;20059;-68
2021/04/29 06:14:12;;;;;;;14.57;10.30;;;11.00;78.00;;;;;;4965053;28;20039;-73
2021/04/29 06:16:38;;;;;;;19.10;11.27;;;11.00;77.90;;;;;;4961928;28;20035;-67
2021/04/29 06:19:04;;;;;;;17.95;12.05;;;11.00;78.40;;;;;;4964863;28;20037;-70
2021/04/29 06:21:29;;;;;;;15.18;11.95;;;11.00;78.60;;;;;;4963053;28;20133;-69
2021/04/29 06:23:55;;;;;;;16.17;11.95;;;11.00;78.90;;;;;;4962251;28;20082;-70
2021/04/29 06:26:21;;;;;;;14.80;11.75;;;11.00;79.10;;;;;;4963280;28;20089;-71
2021/04/29 06:28:47;;;;;;;16.27;12.23;;;11.00;79.30;;;;;;4964238;28;20038;-72
2021/04/29 06:31:13;;;;;;;15.50;10.50;;;11.00;79.30;;;;;;4965913;28;20066;-73
2021/04/29 06:33:39;;;;;;;15.65;11.40;;;11.00;79.50;;;;;;4965515;28;20054;-68
2021/04/29 06:36:08;;;;;;;19.17;12.63;;;11.10;79.60;;;;;;4964594;28;20755;-72
2021/04/29 06:38:35;;;;;;;15.00;11.07;;;11.10;80.00;;;;;;4965651;28;20035;-71
2021/04/29 06:41:01;;;;;;;18.27;12.57;;;11.10;79.70;;;;;;4965149;28;20513;-73
2021/04/29 06:43:27;;;;;;;17.42;12.32;;;11.10;80.10;;;;;;4963418;28;20035;-72
2021/04/29 06:45:54;;;;;;;17.67;12.65;;;11.10;79.80;;;;;;4965035;28;20031;-72
2021/04/29 06:48:20;;;;;;;16.63;12.48;;;11.10;80.10;;;;;;4966762;28;20389;-73
2021/04/29 06:50:46;;;;;;;18.33;11.77;;;11.00;80.10;;;;;;4968581;28;20555;-69
2021/04/29 06:53:12;;;;;;;16.17;13.00;;;11.00;80.10;;;;;;4963093;28;20489;-70
2021/04/29 06:55:38;;;;;;;20.48;12.93;;;11.00;80.30;;;;;;4963647;28;20034;-69
2021/04/29 06:58:03;;;;;;;16.08;12.57;;;11.00;80.50;;;;;;4963487;28;20031;-69
2021/04/29 07:00:30;;;;;;;18.42;12.95;;;11.00;80.30;;;;;;4963145;28;20062;-72
2021/04/29 07:02:56;;;;;;;17.50;12.57;;;11.00;80.50;;;;;;4965272;28;20030;-72
2021/04/29 07:05:23;;;;;;;18.92;12.73;;;11.00;80.50;;;;;;4963198;28;20074;-72
2021/04/29 07:07:55;;;;;;;17.17;12.27;;;11.00;80.40;;;;;;4963513;28;20644;-72
2021/04/29 07:10:23;;;;;;;17.85;12.52;;;11.00;80.60;;;;;;4963758;28;20042;-71
2021/04/29 07:12:49;;;;;;;17.77;13.02;;;10.90;80.60;;;;;;4963392;28;20358;-70
2021/04/29 07:15:16;;;;;;;16.90;13.23;;;10.90;80.80;;;;;;4962579;28;20073;-70
2021/04/29 07:17:42;;;;;;;18.20;12.40;;;10.90;80.90;;;;;;4961394;28;20054;-71
2021/04/29 07:20:09;;;;;;;18.10;13.15;;;10.90;80.80;;;;;;4963200;28;20050;-71
2021/04/29 07:22:34;;;;;;;18.85;13.23;;;11.00;80.60;;;;;;4964191;28;20520;-73
2021/04/29 07:25:01;;;;;;;20.75;13.20;;;10.90;80.60;;;;;;4963473;28;20034;-74
2021/04/29 07:27:27;;;;;;;20.35;13.95;;;10.90;80.40;;;;;;4960203;28;20349;-70
2021/04/29 07:29:53;;;;;;;14.73;11.75;;;10.90;80.50;;;;;;4963497;28;20031;-71
2021/04/29 07:32:18;;;;;;;17.60;13.18;;;10.90;80.40;;;;;;4963006;28;20038;-71
2021/04/29 07:34:44;;;;;;;20.65;13.57;;;10.90;80.40;;;;;;4962811;28;20504;-69
2021/04/29 07:37:10;;;;;;;31.05;19.40;;;10.90;80.30;;;;;;4946131;28;20094;-70
2021/04/29 07:39:36;;;;;;;22.05;14.90;;;10.80;80.40;;;;;;4963309;28;20022;-72
2021/04/29 07:42:02;;;;;;;18.35;13.15;;;10.80;80.60;;;;;;4967274;28;20031;-72
2021/04/29 07:44:28;;;;;;;18.77;14.13;;;10.90;80.80;;;;;;4964300;28;20118;-73
2021/04/29 07:46:54;;;;;;;20.50;14.20;;;10.80;80.70;;;;;;4963277;28;20129;-72
2021/04/29 07:49:20;;;;;;;20.05;14.93;;;10.80;80.80;;;;;;4963926;28;20049;-70
2021/04/29 07:51:45;;;;;;;18.85;13.25;;;10.80;81.10;;;;;;4963327;28;20023;-69
2021/04/29 07:54:15;;;;;;;18.65;14.35;;;10.80;81.00;;;;;;4963238;28;20385;-73
2021/04/29 07:56:43;;;;;;;18.30;14.38;;;10.80;81.40;;;;;;4962339;28;20042;-73
2021/04/29 07:59:09;;;;;;;19.95;13.85;;;10.80;81.30;;;;;;4961421;28;20083;-70
2021/04/29 08:01:35;;;;;;;23.85;14.30;;;10.80;81.70;;;;;;4985545;23;20078;-72
2021/04/29 08:04:02;;;;;;;19.13;13.68;;;10.80;82.10;;;;;;4960069;28;20077;-72
2021/04/29 08:06:31;;;;;;;20.33;15.50;;;10.80;81.30;;;;;;4975366;28;20038;-72
2021/04/29 08:08:57;;;;;;;18.85;14.07;;;10.80;81.50;;;;;;4964208;28;20026;-71
2021/04/29 08:11:23;;;;;;;17.95;14.45;;;10.90;81.80;;;;;;4963591;28;20388;-72
2021/04/29 08:13:50;;;;;;;16.85;13.70;;;10.90;81.70;;;;;;4962807;28;20397;-72
2021/04/29 08:16:16;;;;;;;16.75;13.02;;;10.80;81.50;;;;;;4961306;28;20082;-72
2021/04/29 08:18:44;;;;;;;18.42;14.05;;;10.90;81.30;;;;;;4963643;28;20480;-71
2021/04/29 08:21:13;;;;;;;20.23;13.70;;;10.90;81.60;;;;;;4963594;28;20485;-75
2021/04/29 08:23:39;;;;;;;18.52;13.68;;;11.00;81.40;;;;;;4961604;28;20118;-72
2021/04/29 08:26:04;;;;;;;16.58;13.10;;;11.00;81.30;;;;;;4962067;28;20594;-72
2021/04/29 08:28:30;;;;;;;16.38;13.02;;;11.00;80.90;;;;;;4960082;28;20098;-71
2021/04/29 08:30:56;;;;;;;19.42;13.55;;;11.00;80.90;;;;;;4963016;28;20114;-74
2021/04/29 08:33:22;;;;;;;18.00;13.35;;;11.00;81.10;;;;;;4961098;28;20031;-73
2021/04/29 08:35:48;;;;;;;18.00;14.02;;;11.00;81.40;;;;;;4964563;28;20110;-71
2021/04/29 08:38:14;;;;;;;21.08;15.88;;;11.00;81.70;;;;;;4961500;28;20493;-72
2021/04/29 08:40:40;;;;;;;18.85;14.70;;;11.00;82.20;;;;;;4961519;28;20658;-71
2021/04/29 08:43:06;;;;;;;17.38;13.73;;;11.10;83.00;;;;;;4961117;28;20042;-71
2021/04/29 08:45:33;;;;;;;22.85;15.00;;;11.00;82.70;;;;;;4961220;28;20026;-71
2021/04/29 08:47:59;;;;;;;23.30;15.60;;;11.10;82.90;;;;;;4960427;28;20503;-73
2021/04/29 08:50:27;;;;;;;19.95;14.60;;;11.10;83.50;;;;;;4962273;28;20031;-72
2021/04/29 08:52:53;;;;;;;19.63;14.68;;;11.10;83.70;;;;;;4962659;28;20185;-72
2021/04/29 08:55:24;;;;;;;22.17;16.30;;;11.10;83.90;;;;;;4957589;28;20035;-73
2021/04/29 08:57:50;;;;;;;20.23;14.60;;;11.00;84.00;;;;;;4962140;28;20480;-72
2021/04/29 09:00:17;;;;;;;21.95;16.30;;;11.00;85.00;;;;;;4989224;28;20086;-71
2021/04/29 09:02:47;;;;;;;23.15;15.98;;;11.00;85.10;;;;;;4961573;28;20090;-72
2021/04/29 09:05:26;;;;;;;21.20;15.23;;;11.00;85.20;;;;;;4963265;28;20035;-73
2021/04/29 09:08:01;;;;;;;17.85;14.15;;;11.00;84.70;;;;;;4962748;28;20082;-72
2021/04/29 09:10:37;;;;;;;20.70;14.15;;;11.00;84.80;;;;;;4973319;28;20062;-71
2021/04/29 09:13:13;;;;;;;21.23;14.50;;;11.10;84.90;;;;;;4960923;28;20024;-73
2021/04/29 09:15:40;;;;;;;22.35;16.45;;;11.10;84.70;;;;;;4962699;28;20684;-74
2021/04/29 09:18:14;;;;;;;22.20;15.98;;;11.10;84.90;;;;;;4963412;28;20551;-72
2021/04/29 09:21:13;;;;;;;25.00;16.30;;;11.20;85.30;;;;;;4964403;28;20550;-73
2021/04/29 09:23:44;;;;;;;19.17;15.02;;;11.20;85.70;;;;;;4956552;28;20047;-72
2021/04/29 09:26:20;;;;;;;21.13;14.40;;;11.20;84.90;;;;;;4976879;28;20223;-72
2021/04/29 09:28:54;;;;;;;17.73;14.55;;;11.20;85.20;;;;;;4962480;28;20043;-73
2021/04/29 09:31:21;;;;;;;20.45;15.80;;;11.20;85.10;;;;;;4962920;28;20029;-72
2021/04/29 09:33:57;;;;;;;17.08;13.40;;;11.20;85.20;;;;;;4962490;28;20057;-72
2021/04/29 09:36:36;;;;;;;23.58;15.32;;;11.20;85.20;;;;;;4965026;28;20429;-72
2021/04/29 09:39:06;;;;;;;19.83;14.25;;;11.20;85.20;;;;;;4965633;28;20032;-72
2021/04/29 09:41:36;;;;;;;24.85;14.05;;;11.20;85.60;;;;;;4963776;28;20034;-71
2021/04/29 09:44:07;;;;;;;22.67;14.90;;;11.20;85.90;;;;;;4964911;28;20039;-72
2021/04/29 09:46:48;;;;;;;21.10;15.32;;;11.20;85.80;;;;;;4970362;28;20041;-74
2021/04/29 09:49:31;;;;;;;19.00;13.83;;;11.30;85.90;;;;;;4966307;28;20030;-73
2021/04/29 09:51:58;;;;;;;20.40;15.45;;;11.30;85.80;;;;;;4965563;28;20042;-73
2021/04/29 09:54:27;;;;;;;21.83;15.00;;;11.30;86.00;;;;;;4967882;28;20027;-71
2021/04/29 09:56:57;;;;;;;19.23;14.80;;;11.30;86.00;;;;;;4968067;28;20019;-71
2021/04/29 09:59:35;;;;;;;20.48;15.25;;;11.40;86.20;;;;;;4967623;28;20528;-71
2021/04/29 10:02:01;;;;;;;17.92;14.63;;;11.40;86.60;;;;;;4967434;28;20489;-71
2021/04/29 10:04:29;;;;;;;18.73;14.82;;;11.40;86.50;;;;;;4964103;28;20640;-72
2021/04/29 10:06:55;;;;;;;18.95;14.30;;;11.40;86.30;;;;;;4963510;28;20066;-71
2021/04/29 10:09:27;;;;;;;19.30;14.63;;;11.40;86.00;;;;;;4965292;28;20031;-72
2021/04/29 10:11:57;;;;;;;18.40;14.75;;;11.40;86.10;;;;;;4946975;28;20377;-72
2021/04/29 10:14:25;;;;;;;20.52;13.63;;;11.40;86.00;;;;;;4967492;28;20515;-74
2021/04/29 10:16:51;;;;;;;19.75;15.50;;;11.40;85.80;;;;;;4973591;28;20023;-71
2021/04/29 10:19:17;;;;;;;18.70;14.85;;;11.40;85.80;;;;;;4970143;28;20030;-73
2021/04/29 10:21:46;;;;;;;20.38;15.43;;;11.30;85.80;;;;;;4967661;28;20034;-71
2021/04/29 10:24:15;;;;;;;18.40;13.70;;;11.30;86.00;;;;;;4965835;28;20030;-75
2021/04/29 10:26:41;;;;;;;19.90;14.60;;;11.30;85.80;;;;;;4974001;28;20027;-73
2021/04/29 10:29:09;;;;;;;22.17;14.85;;;11.30;86.10;;;;;;4968352;28;20116;-75
2021/04/29 10:31:36;;;;;;;21.88;17.13;;;11.30;86.30;;;;;;4967566;28;22164;-72
2021/04/29 10:34:03;;;;;;;18.75;15.27;;;11.20;86.80;;;;;;4967952;28;20145;-76
2021/04/29 10:36:44;;;;;;;20.73;17.08;;;11.20;87.20;;;;;;4967319;28;20057;-71
2021/04/29 10:39:16;;;;;;;22.00;16.50;;;11.10;87.60;;;;;;4965572;28;20037;-72
2021/04/29 10:41:44;;;;;;;20.88;17.17;;;11.00;87.70;;;;;;4973506;28;20113;-73
2021/04/29 10:44:15;;;;;;;21.42;17.08;;;11.00;88.20;;;;;;4974280;28;20425;-72
2021/04/29 10:46:42;;;;;;;;;;;10.90;88.50;;;;;;4967754;28;20538;-73
2021/04/29 10:49:09;;;;;;;22.02;16.20;;;10.90;88.80;;;;;;4971523;28;19910;-73
2021/04/29 10:51:40;;;;;;;21.17;16.95;;;10.80;88.90;;;;;;4964824;28;20023;-72
2021/04/29 10:54:11;;;;;;;23.73;17.65;;;10.80;89.50;;;;;;4972365;28;20042;-73
2021/04/29 10:56:38;;;;;;;22.10;17.90;;;10.80;89.60;;;;;;4967540;28;20076;-74
2021/04/29 10:59:09;;;;;;;21.10;17.48;;;10.80;90.00;;;;;;4974195;28;20062;-74
2021/04/29 11:01:45;;;;;;;21.00;16.70;;;10.80;89.70;;;;;;4971413;28;20035;-74
2021/04/29 11:04:21;;;;;;;24.88;17.95;;;10.80;89.30;;;;;;4966323;28;20081;-73
2021/04/29 11:06:49;;;;;;;23.80;17.55;;;10.90;89.60;;;;;;4964575;28;20046;-72
2021/04/29 11:09:22;;;;;;;25.25;18.35;;;10.90;89.60;;;;;;4961174;28;20388;-70
2021/04/29 11:11:59;;;;;;;23.55;18.10;;;10.90;89.30;;;;;;4963840;28;20377;-70
2021/04/29 11:14:43;;;;;;;19.00;15.10;;;10.90;89.20;;;;;;4968345;28;20035;-71
2021/04/29 11:17:20;;;;;;;21.13;16.50;;;10.90;88.80;;;;;;4967224;28;20041;-71
2021/04/29 11:19:48;;;;;;;19.55;15.30;;;11.00;88.60;;;;;;4967624;28;20073;-71
2021/04/29 11:22:37;;;;;;;20.52;15.38;;;11.00;88.30;;;;;;4966420;28;20023;-71
2021/04/29 11:25:11;;;;;;;19.08;15.55;;;11.00;88.10;;;;;;4969288;28;20038;-71
2021/04/29 11:27:40;;;;;;;23.50;17.45;;;11.10;88.40;;;;;;4963719;28;20134;-72
2021/04/29 11:30:07;;;;;;;23.13;17.25;;;11.20;87.60;;;;;;4969696;28;20053;-72
2021/04/29 11:32:34;;;;;;;21.67;17.10;;;11.10;87.50;;;;;;4965683;28;20023;-72
2021/04/29 11:35:20;;;;;;;20.80;16.30;;;11.10;87.50;;;;;;4967917;28;20508;-71
2021/04/29 11:37:46;;;;;;;23.25;17.17;;;11.00;87.60;;;;;;4968140;28;20035;-72
2021/04/29 11:40:13;;;;;;;20.25;15.80;;;11.00;88.20;;;;;;4965861;28;20441;-71
2021/04/29 11:42:43;;;;;;;17.25;13.63;;;10.90;89.00;;;;;;4963694;28;20472;-71
2021/04/29 11:45:17;;;;;;;259.35;141.90;;;10.80;88.50;;;;;;4963538;28;20031;-71
2021/04/29 11:47:57;;;;;;;150.25;88.78;;;10.80;89.30;;;;;;4985380;28;20085;-72
2021/04/29 11:50:34;;;;;;;101.82;59.90;;;10.80;89.40;;;;;;4965263;28;20019;-71
2021/04/29 11:53:06;;;;;;;35.53;25.45;;;10.80;89.50;;;;;;4963264;28;20552;-71
2021/04/29 11:55:32;;;;;;;22.48;18.00;;;10.80;89.60;;;;;;4967653;28;21521;-71
2021/04/29 11:58:04;;;;;;;23.63;16.90;;;10.80;89.80;;;;;;4970645;28;20484;-71
2021/04/29 12:00:33;;;;;;;21.58;17.20;;;10.80;89.90;;;;;;4983012;28;20061;-71
2021/04/29 12:03:02;;;;;;;21.65;15.82;;;10.70;90.00;;;;;;4960984;28;20031;-71
2021/04/29 12:05:32;;;;;;;20.30;17.02;;;10.70;90.00;;;;;;4963853;28;20034;-71
2021/04/29 12:07:58;;;;;;;21.60;17.60;;;10.70;90.60;;;;;;4961161;28;20027;-70
2021/04/29 12:10:41;;;;;;;26.13;19.15;;;10.60;91.00;;;;;;4964031;28;20074;-71
2021/04/29 12:13:06;;;;;;;20.63;16.70;;;10.50;91.20;;;;;;4966301;28;20499;-71
2021/04/29 12:15:32;;;;;;;23.45;18.17;;;10.50;91.80;;;;;;4966595;28;20031;-72
2021/04/29 12:17:59;;;;;;;24.85;18.73;;;10.50;91.70;;;;;;4966459;28;20138;-71
2021/04/29 12:20:25;;;;;;;24.90;18.83;;;10.40;91.90;;;;;;4962063;28;20039;-71
2021/04/29 12:22:51;;;;;;;25.40;19.77;;;10.40;92.00;;;;;;4980011;28;20039;-71
2021/04/29 12:25:21;;;;;;;24.13;19.67;;;10.40;92.10;;;;;;4963363;28;20035;-71
2021/04/29 12:27:47;;;;;;;26.15;19.63;;;10.40;92.10;;;;;;4963280;28;20027;-71
2021/04/29 12:30:13;;;;;;;28.58;21.63;;;10.30;92.20;;;;;;4964231;28;20028;-71
2021/04/29 12:32:44;;;;;;;32.15;20.92;;;10.30;92.40;;;;;;4961651;28;20035;-70
2021/04/29 12:35:28;;;;;;;26.35;19.25;;;10.30;92.30;;;;;;4962712;28;20086;-70